createdAt,value
2018-10-16T00:01:31.236Z,58.68
2018-10-16T00:04:00.664Z,58.60
2018-10-16T00:06:30.101Z,58.59
2018-10-16T00:08:59.673Z,59.13
2018-10-16T00:11:29.113Z,59.25
2018-10-16T00:13:58.529Z,59.08
2018-10-16T00:16:27.979Z,58.91
2018-10-16T00:18:57.411Z,59.16
2018-10-16T00:21:26.837Z,58.85
2018-10-16T00:23:56.375Z,59.09
2018-10-16T00:26:25.831Z,59.58
2018-10-16T00:28:55.334Z,59.19
2018-10-16T00:31:24.897Z,59.27
2018-10-16T00:33:54.329Z,59.01
2018-10-16T00:36:23.717Z,59.39
2018-10-16T00:38:53.163Z,59.24
2018-10-16T00:41:22.580Z,59.79
2018-10-16T00:43:51.979Z,60.08
2018-10-16T00:46:21.409Z,60.22
2018-10-16T00:48:50.822Z,59.84
2018-10-16T00:51:20.262Z,60.19
2018-10-16T00:53:49.669Z,60.17
2018-10-16T00:56:19.111Z,60.75
2018-10-16T00:58:48.508Z,60.87
2018-10-16T01:01:22.006Z,60.86
2018-10-16T01:03:51.434Z,60.73
2018-10-16T01:06:20.857Z,61.41
2018-10-16T01:08:50.272Z,61.27
2018-10-16T01:11:20.065Z,61.71
2018-10-16T01:13:49.460Z,61.30
2018-10-16T01:16:18.863Z,61.80
2018-10-16T01:18:48.285Z,62.02
2018-10-16T01:21:17.829Z,62.12
2018-10-16T01:23:47.504Z,61.85
2018-10-16T01:26:17.188Z,62.42
2018-10-16T01:28:47.131Z,62.53
2018-10-16T01:31:17.531Z,62.38
2018-10-16T01:33:47.206Z,62.43
2018-10-16T01:36:16.925Z,62.50
2018-10-16T01:38:46.585Z,63.02
2018-10-16T01:41:16.268Z,63.21
2018-10-16T01:43:45.908Z,63.47
2018-10-16T01:46:15.673Z,63.40
2018-10-16T01:48:45.373Z,64.22
2018-10-16T01:51:15.084Z,63.56
2018-10-16T01:53:44.746Z,64.29
2018-10-16T01:56:14.388Z,63.92
2018-10-16T01:58:44.032Z,64.43
2018-10-16T02:01:13.700Z,64.57
2018-10-16T02:03:43.336Z,64.39
2018-10-16T02:06:13.033Z,64.40
2018-10-16T02:08:42.744Z,64.63
2018-10-16T02:11:12.409Z,64.97
2018-10-16T02:13:42.141Z,64.36
2018-10-16T02:16:11.787Z,64.87
2018-10-16T02:18:41.480Z,64.43
2018-10-16T02:21:11.102Z,64.91
2018-10-16T02:23:40.808Z,64.73
2018-10-16T02:26:10.508Z,64.86
2018-10-16T02:28:40.164Z,65.18
2018-10-16T02:31:09.802Z,65.07
2018-10-16T02:33:39.492Z,65.27
2018-10-16T02:36:09.151Z,65.44
2018-10-16T02:38:38.841Z,65.89
2018-10-16T02:41:08.484Z,65.87
2018-10-16T02:43:38.129Z,65.74
2018-10-16T02:46:08.043Z,66.16
2018-10-16T02:48:38.106Z,66.04
2018-10-16T02:51:08.064Z,66.33
2018-10-16T02:53:37.785Z,66.10
2018-10-16T02:56:07.691Z,66.27
2018-10-16T02:58:37.380Z,66.95
2018-10-16T03:01:08.191Z,67.09
2018-10-16T03:03:39.237Z,67.59
2018-10-16T03:06:09.048Z,67.13
2018-10-16T03:08:38.915Z,67.39
2018-10-16T03:11:08.544Z,67.18
2018-10-16T03:13:38.193Z,67.12
2018-10-16T03:16:07.885Z,67.36
2018-10-16T03:18:37.564Z,67.94
2018-10-16T03:21:07.265Z,67.71
2018-10-16T03:23:36.896Z,67.56
2018-10-16T03:26:06.768Z,67.32
2018-10-16T03:28:36.404Z,67.96
2018-10-16T03:31:06.277Z,67.55
2018-10-16T03:33:35.985Z,68.35
2018-10-16T03:36:06.733Z,67.99
2018-10-16T03:38:36.387Z,68.04
2018-10-16T03:41:06.313Z,68.45
2018-10-16T03:43:39.095Z,68.41
2018-10-16T03:46:08.981Z,68.55
2018-10-16T03:48:38.628Z,68.86
2018-10-16T03:51:08.518Z,68.60
2018-10-16T03:53:38.155Z,68.82
2018-10-16T03:56:07.806Z,69.14
2018-10-16T03:58:43.479Z,69.20
2018-10-16T04:01:13.115Z,69.26
2018-10-16T04:03:42.772Z,69.14
2018-10-16T04:06:12.694Z,69.73
2018-10-16T04:08:42.301Z,69.46
2018-10-16T04:11:11.949Z,69.49
2018-10-16T04:13:41.788Z,69.42
2018-10-16T04:16:11.435Z,69.62
2018-10-16T04:18:41.215Z,70.04
2018-10-16T04:21:11.743Z,69.50
2018-10-16T04:23:42.556Z,69.53
2018-10-16T04:26:12.830Z,69.35
2018-10-16T04:28:42.505Z,69.50
2018-10-16T04:31:12.327Z,69.99
2018-10-16T04:33:41.979Z,70.30
2018-10-16T04:36:11.625Z,70.56
2018-10-16T04:38:41.263Z,70.49
2018-10-16T04:41:11.137Z,70.73
2018-10-16T04:43:40.740Z,70.71
2018-10-16T04:46:10.493Z,71.21
2018-10-16T04:48:40.187Z,71.48
2018-10-16T04:51:10.038Z,71.50
2018-10-16T04:53:39.728Z,71.90
2018-10-16T04:56:09.387Z,71.63
2018-10-16T04:58:40.330Z,71.41
2018-10-16T05:01:10.353Z,71.59
2018-10-16T05:03:40.043Z,71.36
2018-10-16T05:06:09.772Z,71.42
2018-10-16T05:08:39.522Z,71.62
2018-10-16T05:11:09.168Z,71.76
2018-10-16T05:13:38.810Z,72.06
2018-10-16T05:16:08.708Z,71.53
2018-10-16T05:18:38.360Z,72.10
2018-10-16T05:21:08.029Z,72.20
2018-10-16T05:23:37.948Z,72.29
2018-10-16T05:26:07.927Z,71.88
2018-10-16T05:28:37.621Z,72.41
2018-10-16T05:31:07.696Z,72.54
2018-10-16T05:33:37.672Z,72.77
2018-10-16T05:36:08.375Z,72.49
2018-10-16T05:38:38.088Z,73.16
2018-10-16T05:41:08.158Z,73.30
2018-10-16T05:43:37.812Z,73.09
2018-10-16T05:46:07.436Z,72.74
2018-10-16T05:48:37.105Z,72.72
2018-10-16T05:51:06.926Z,72.26
2018-10-16T05:53:36.539Z,73.09
2018-10-16T05:56:07.222Z,72.70
2018-10-16T05:58:36.900Z,72.70
2018-10-16T06:01:06.651Z,72.03
2018-10-16T06:03:36.390Z,71.85
2018-10-16T06:06:06.243Z,71.38
2018-10-16T06:08:35.932Z,71.30
2018-10-16T06:11:06.039Z,70.33
2018-10-16T06:13:35.834Z,69.79
2018-10-16T06:16:05.729Z,68.73
2018-10-16T06:18:35.345Z,67.74
2018-10-16T06:21:05.107Z,66.55
2018-10-16T06:23:34.812Z,65.25
2018-10-16T06:26:04.626Z,64.15
2018-10-16T06:28:34.258Z,63.20
2018-10-16T06:31:03.920Z,62.50
2018-10-16T06:33:33.664Z,61.06
2018-10-16T06:36:03.382Z,59.70
2018-10-16T06:38:33.044Z,58.12
2018-10-16T06:41:02.998Z,56.95
2018-10-16T06:43:32.533Z,55.34
2018-10-16T06:46:02.269Z,53.76
2018-10-16T06:48:32.137Z,53.10
2018-10-16T06:51:01.576Z,51.92
2018-10-16T06:53:31.236Z,51.35
2018-10-16T06:56:00.909Z,49.72
2018-10-16T06:58:30.532Z,49.01
2018-10-16T07:01:00.208Z,48.19
2018-10-16T07:03:30.398Z,47.38
2018-10-16T07:06:00.119Z,45.63
2018-10-16T07:08:30.234Z,44.58
2018-10-16T07:11:00.313Z,43.96
2018-10-16T07:13:30.334Z,43.33
2018-10-16T07:16:00.641Z,41.94
2018-10-16T07:18:30.765Z,42.18
2018-10-16T07:21:01.010Z,40.83
2018-10-16T07:23:31.176Z,40.11
2018-10-16T07:26:01.188Z,39.42
2018-10-16T07:28:30.903Z,38.86
2018-10-16T07:31:00.572Z,38.51
2018-10-16T07:33:30.228Z,37.73
2018-10-16T07:36:00.036Z,37.13
2018-10-16T07:38:30.140Z,36.65
2018-10-16T07:41:00.123Z,36.01
2018-10-16T07:43:30.631Z,35.50
2018-10-16T07:46:00.804Z,34.98
2018-10-16T07:48:30.841Z,35.31
2018-10-16T07:51:01.160Z,34.41
2018-10-16T07:53:31.345Z,33.89
2018-10-16T07:56:01.463Z,34.61
2018-10-16T07:58:31.625Z,33.54
2018-10-16T08:01:01.612Z,33.74
2018-10-16T08:03:31.838Z,33.96
2018-10-16T08:06:01.924Z,33.00
2018-10-16T08:08:31.825Z,33.90
2018-10-16T08:11:01.980Z,32.62
2018-10-16T08:13:32.239Z,30.93
2018-10-16T08:16:02.362Z,31.98
2018-10-16T08:18:32.669Z,31.95
2018-10-16T08:21:02.879Z,31.80
2018-10-16T08:23:33.060Z,31.60
2018-10-16T08:26:03.583Z,31.41
2018-10-16T08:28:33.668Z,31.65
2018-10-16T08:31:03.859Z,31.41
2018-10-16T08:33:33.921Z,31.72
2018-10-16T08:36:03.954Z,31.22
2018-10-16T08:38:56.618Z,30.89
2018-10-16T08:41:33.943Z,31.22
2018-10-16T08:45:21.820Z,31.02
2018-10-16T08:48:08.450Z,30.96
2018-10-16T08:50:55.018Z,31.63
2018-10-16T08:53:25.069Z,31.51
2018-10-16T08:55:55.229Z,31.71
2018-10-16T08:58:25.306Z,31.83
2018-10-16T09:00:55.409Z,32.18
2018-10-16T09:03:25.461Z,31.38
2018-10-16T09:05:55.416Z,30.83
2018-10-16T09:08:25.549Z,31.19
2018-10-16T09:10:55.621Z,31.17
2018-10-16T09:13:25.641Z,31.21
2018-10-16T09:15:55.703Z,30.70
2018-10-16T09:18:25.980Z,31.13
2018-10-16T09:20:56.512Z,30.87
2018-10-16T09:23:26.436Z,30.75
2018-10-16T09:25:56.790Z,30.53
2018-10-16T09:28:26.748Z,30.56
2018-10-16T09:30:56.823Z,30.17
2018-10-16T09:33:26.976Z,30.26
2018-10-16T09:35:57.089Z,29.79
2018-10-16T09:38:27.120Z,30.16
2018-10-16T09:40:57.411Z,29.35
2018-10-16T09:43:27.558Z,29.61
2018-10-16T09:45:57.710Z,30.41
2018-10-16T09:48:27.788Z,30.18
2018-10-16T09:50:57.734Z,30.72
2018-10-16T09:53:28.713Z,29.66
2018-10-16T09:55:58.689Z,29.45
2018-10-16T09:58:28.805Z,30.51
2018-10-16T10:01:04.081Z,30.27
2018-10-16T10:03:33.992Z,28.85
2018-10-16T10:06:04.251Z,28.95
2018-10-16T10:08:34.271Z,29.51
2018-10-16T10:11:04.455Z,29.37
2018-10-16T10:13:34.506Z,28.84
2018-10-16T10:16:04.481Z,29.26
2018-10-16T10:18:34.431Z,28.65
2018-10-16T10:21:04.616Z,28.83
2018-10-16T10:23:34.623Z,28.90
2018-10-16T10:26:04.846Z,29.74
2018-10-16T10:28:34.998Z,29.88
2018-10-16T10:31:05.252Z,30.41
2018-10-16T10:33:35.275Z,29.98
2018-10-16T10:36:05.437Z,30.61
2018-10-16T10:38:35.574Z,31.15
2018-10-16T10:41:05.857Z,30.75
2018-10-16T10:43:35.982Z,30.99
2018-10-16T10:46:06.594Z,30.74
2018-10-16T10:48:37.044Z,31.68
2018-10-16T10:51:08.187Z,31.43
2018-10-16T10:53:38.242Z,32.69
2018-10-16T10:56:08.560Z,33.62
2018-10-16T10:58:38.803Z,33.43
2018-10-16T11:01:08.917Z,34.45
2018-10-16T11:03:39.353Z,34.91
2018-10-16T11:06:09.698Z,35.40
2018-10-16T11:08:40.487Z,35.19
2018-10-16T11:11:10.686Z,35.91
2018-10-16T11:13:40.771Z,37.02
2018-10-16T11:16:11.233Z,37.63
2018-10-16T11:18:41.243Z,38.43
2018-10-16T11:21:11.346Z,38.80
2018-10-16T11:23:41.637Z,38.59
2018-10-16T11:26:12.270Z,38.82
2018-10-16T11:28:42.933Z,39.45
2018-10-16T11:31:13.028Z,39.70
2018-10-16T11:33:43.152Z,39.90
2018-10-16T11:36:13.305Z,39.51
2018-10-16T11:38:43.315Z,39.69
2018-10-16T11:41:13.309Z,39.30
2018-10-16T11:43:43.513Z,38.60
2018-10-16T11:46:13.564Z,39.08
2018-10-16T11:48:44.136Z,38.71
2018-10-16T11:51:14.306Z,38.31
2018-10-16T11:53:44.294Z,37.60
2018-10-16T11:56:14.531Z,37.46
2018-10-16T11:58:44.228Z,37.15
2018-10-16T12:01:14.310Z,36.95
2018-10-16T12:03:44.148Z,36.88
2018-10-16T12:06:13.954Z,37.01
2018-10-16T12:08:43.580Z,36.96
2018-10-16T12:11:13.327Z,36.32
2018-10-16T12:13:42.855Z,37.19
2018-10-16T12:16:12.527Z,36.83
2018-10-16T12:19:03.278Z,36.45
2018-10-16T12:21:32.895Z,37.10
2018-10-16T12:24:02.775Z,36.88
2018-10-16T12:26:32.680Z,37.78
2018-10-16T12:29:02.342Z,37.16
2018-10-16T12:31:32.028Z,37.98
2018-10-16T12:34:01.665Z,38.17
2018-10-16T12:36:32.506Z,37.72
2018-10-16T12:39:02.230Z,38.24
2018-10-16T12:41:31.851Z,37.82
2018-10-16T12:44:01.534Z,38.28
2018-10-16T12:46:31.313Z,38.10
2018-10-16T12:49:01.186Z,37.97
2018-10-16T12:51:31.155Z,38.21
2018-10-16T12:54:01.156Z,37.53
2018-10-16T12:56:30.779Z,37.52
2018-10-16T12:59:00.689Z,37.72
2018-10-16T13:01:30.468Z,38.50
2018-10-16T13:05:03.902Z,38.67
2018-10-16T13:07:36.177Z,38.61
2018-10-16T13:10:15.860Z,38.22
2018-10-16T13:12:46.336Z,38.33
2018-10-16T13:15:16.881Z,38.40
2018-10-16T13:17:47.908Z,38.96
2018-10-16T13:20:18.233Z,38.69
2018-10-16T13:22:49.105Z,38.49
2018-10-16T13:25:19.289Z,39.38
2018-10-16T13:27:49.406Z,39.57
2018-10-16T13:30:20.261Z,39.01
2018-10-16T13:32:51.387Z,39.10
2018-10-16T13:35:22.644Z,39.89
2018-10-16T13:37:53.264Z,39.14
2018-10-16T13:40:23.532Z,39.30
2018-10-16T13:42:54.092Z,39.88
2018-10-16T13:45:24.599Z,40.29
2018-10-16T13:47:54.743Z,39.84
2018-10-16T13:50:25.258Z,40.45
2018-10-16T13:52:55.563Z,40.24
2018-10-16T13:55:25.676Z,40.45
2018-10-16T13:57:55.798Z,40.92
2018-10-16T14:00:25.962Z,40.85
2018-10-16T14:02:56.780Z,40.83
2018-10-16T14:05:26.910Z,41.22
2018-10-16T14:07:57.147Z,41.39
2018-10-16T14:10:27.128Z,41.53
2018-10-16T14:12:57.570Z,42.03
2018-10-16T14:15:28.428Z,42.49
2018-10-16T14:17:58.404Z,42.05
2018-10-16T14:20:29.426Z,42.03
2018-10-16T14:22:59.511Z,42.65
2018-10-16T14:25:30.597Z,42.09
2018-10-16T14:28:00.817Z,42.93
2018-10-16T14:30:30.705Z,43.14
2018-10-16T14:33:00.869Z,43.46
2018-10-16T14:35:33.182Z,43.17
2018-10-16T14:38:05.095Z,43.20
2018-10-16T14:40:36.548Z,43.64
2018-10-16T14:43:07.268Z,43.85
2018-10-16T14:45:37.626Z,44.11
2018-10-16T14:48:07.680Z,44.33
2018-10-16T14:50:37.946Z,44.80
2018-10-16T14:53:07.976Z,44.77
2018-10-16T14:55:38.120Z,44.78
2018-10-16T14:58:08.256Z,44.59
2018-10-16T15:00:38.400Z,45.51
2018-10-16T15:03:08.447Z,45.12
2018-10-16T15:05:38.920Z,45.16
2018-10-16T15:08:09.403Z,46.04
2018-10-16T15:10:39.498Z,45.70
2018-10-16T15:13:10.332Z,46.04
2018-10-16T15:15:40.375Z,46.16
2018-10-16T15:18:10.351Z,46.23
2018-10-16T15:20:40.371Z,46.29
2018-10-16T15:23:10.604Z,46.63
2018-10-16T15:25:40.291Z,47.21
2018-10-16T15:28:10.024Z,47.71
2018-10-16T15:30:39.608Z,47.04
2018-10-16T15:33:10.177Z,47.78
2018-10-16T15:35:39.969Z,48.77
2018-10-16T15:38:09.783Z,48.57
2018-10-16T15:40:39.458Z,48.81
2018-10-16T15:43:09.163Z,49.19
2018-10-16T15:45:38.907Z,48.87
2018-10-16T15:48:10.679Z,49.67
2018-10-16T15:50:40.470Z,49.80
2018-10-16T15:53:10.220Z,50.12
2018-10-16T15:55:40.052Z,50.38
2018-10-16T15:58:09.872Z,50.74
2018-10-16T16:00:39.595Z,50.85
2018-10-16T16:03:09.338Z,51.19
2018-10-16T16:05:39.008Z,51.09
2018-10-16T16:08:08.851Z,51.32
2018-10-16T16:10:38.568Z,52.25
2018-10-16T16:13:09.027Z,52.39
2018-10-16T16:15:38.813Z,52.84
2018-10-16T16:18:08.865Z,52.50
2018-10-16T16:20:38.468Z,53.45
2018-10-16T16:23:08.280Z,54.05
2018-10-16T16:25:38.075Z,54.34
2018-10-16T16:28:07.836Z,54.28
2018-10-16T16:30:37.517Z,54.19
2018-10-16T16:33:07.593Z,54.63
2018-10-16T16:35:37.300Z,54.76
2018-10-16T16:38:07.300Z,55.03
2018-10-16T16:40:36.989Z,55.37
2018-10-16T16:43:06.728Z,55.72
2018-10-16T16:45:36.453Z,55.93
2018-10-16T16:48:06.396Z,55.73
2018-10-16T16:50:36.035Z,56.40
2018-10-16T16:53:05.813Z,55.96
2018-10-16T16:55:35.608Z,56.24
2018-10-16T16:58:05.677Z,57.00
2018-10-16T17:00:35.497Z,57.67
2018-10-16T17:03:05.455Z,58.30
2018-10-16T17:05:35.164Z,58.45
2018-10-16T17:08:05.238Z,58.92
2018-10-16T17:10:35.002Z,58.84
2018-10-16T17:13:04.818Z,59.18
2018-10-16T17:15:34.583Z,58.53
2018-10-16T17:18:04.260Z,58.61
2018-10-16T17:20:33.959Z,58.48
2018-10-16T17:23:03.672Z,58.75
2018-10-16T17:25:33.863Z,58.71
2018-10-16T17:28:03.261Z,59.45
2018-10-16T17:30:32.965Z,59.97
2018-10-16T17:33:02.890Z,59.65
2018-10-16T17:35:32.563Z,59.75
2018-10-16T17:38:02.274Z,60.18
2018-10-16T17:40:32.062Z,60.58
2018-10-16T17:43:01.799Z,60.71
2018-10-16T17:45:31.499Z,60.67
2018-10-16T17:48:01.361Z,60.98
2018-10-16T17:50:31.024Z,61.01
2018-10-16T17:53:01.338Z,61.80
2018-10-16T17:55:31.096Z,61.32
2018-10-16T17:58:00.983Z,61.38
2018-10-16T18:00:30.636Z,61.12
2018-10-16T18:03:00.400Z,60.89
2018-10-16T18:05:30.132Z,61.22
2018-10-16T18:07:59.836Z,60.88
2018-10-16T18:10:29.613Z,61.10
2018-10-16T18:12:59.325Z,60.23
2018-10-16T18:15:29.088Z,61.24
2018-10-16T18:17:58.848Z,61.42
2018-10-16T18:20:28.589Z,61.23
2018-10-16T18:22:58.273Z,61.96
2018-10-16T18:25:28.015Z,62.37
2018-10-16T18:27:57.778Z,62.66
2018-10-16T18:30:27.518Z,63.08
2018-10-16T18:32:57.351Z,63.06
2018-10-16T18:35:27.109Z,63.24
2018-10-16T18:37:56.846Z,63.73
2018-10-16T18:40:26.591Z,64.47
2018-10-16T18:42:56.332Z,64.35
2018-10-16T18:45:26.190Z,64.88
2018-10-16T18:47:56.024Z,65.06
2018-10-16T18:50:26.243Z,65.24
2018-10-16T18:52:55.984Z,66.03
2018-10-16T18:55:25.787Z,65.25
2018-10-16T18:57:55.563Z,65.77
2018-10-16T19:00:25.320Z,68.19
2018-10-16T19:02:55.123Z,67.46
2018-10-16T19:05:25.029Z,66.94
2018-10-16T19:07:54.719Z,66.91
2018-10-16T19:10:24.420Z,67.04
2018-10-16T19:12:54.149Z,67.08
2018-10-16T19:15:23.863Z,66.67
2018-10-16T19:17:53.610Z,67.37
2018-10-16T19:20:23.296Z,67.26
2018-10-16T19:29:55.294Z,66.17
2018-10-16T19:32:25.081Z,67.17
2018-10-16T19:34:54.732Z,67.19
2018-10-16T19:37:24.475Z,67.54
2018-10-16T19:39:54.237Z,67.07
2018-10-16T19:42:23.984Z,67.82
2018-10-16T19:44:53.675Z,67.19
2018-10-16T19:47:23.445Z,67.58
2018-10-16T19:49:53.160Z,67.95
2018-10-16T19:52:22.968Z,67.94
2018-10-16T19:54:52.712Z,68.53
2018-10-16T19:57:22.540Z,68.26
2018-10-16T19:59:52.375Z,67.90
2018-10-16T20:02:22.072Z,69.11
2018-10-16T20:04:51.888Z,68.88
2018-10-16T20:07:21.821Z,68.39
2018-10-16T20:09:51.632Z,67.92
2018-10-16T20:12:21.466Z,67.73
2018-10-16T20:14:51.240Z,67.94
2018-10-16T20:17:21.112Z,68.19
2018-10-16T20:19:50.939Z,68.78
2018-10-16T20:22:20.651Z,68.88
2018-10-16T20:24:50.480Z,68.20
2018-10-16T20:27:20.137Z,67.96
2018-10-16T20:29:49.905Z,67.77
2018-10-16T20:32:19.605Z,67.91
2018-10-16T20:34:49.340Z,68.02
2018-10-16T20:37:19.110Z,68.00
2018-10-16T20:39:48.956Z,68.11
2018-10-16T20:42:18.671Z,67.18
2018-10-16T20:44:48.562Z,67.11
2018-10-16T20:47:18.273Z,66.67
2018-10-16T20:49:48.008Z,66.46
2018-10-16T20:52:17.742Z,65.96
2018-10-16T20:54:47.535Z,66.53
2018-10-16T20:57:17.292Z,66.26
2018-10-16T20:59:48.290Z,65.75
2018-10-16T21:02:18.600Z,65.91
2018-10-16T21:04:48.774Z,66.79
2018-10-16T21:07:18.642Z,66.69
2018-10-16T21:09:48.560Z,67.14
2018-10-16T21:12:18.252Z,66.96
2018-10-16T21:14:48.085Z,67.91
2018-10-16T21:17:17.777Z,68.36
2018-10-16T21:19:47.505Z,68.53
2018-10-16T21:22:17.223Z,68.76
2018-10-16T21:24:46.980Z,68.20
2018-10-16T21:27:16.706Z,68.25
2018-10-16T21:29:46.603Z,68.03
2018-10-16T21:32:26.334Z,68.60
2018-10-16T21:34:56.038Z,68.50
2018-10-16T21:37:25.722Z,68.56
2018-10-16T21:39:55.408Z,69.44
2018-10-16T21:42:25.145Z,69.87
2018-10-16T21:44:54.848Z,69.79
2018-10-16T21:47:24.482Z,70.42
2018-10-16T21:49:54.132Z,70.29
2018-10-16T21:52:23.809Z,70.75
2018-10-16T21:54:53.484Z,70.87
2018-10-16T21:57:23.115Z,70.95
2018-10-16T21:59:52.807Z,72.05
2018-10-16T22:02:27.704Z,71.86
2018-10-16T22:04:57.416Z,72.26
2018-10-16T22:07:27.119Z,71.85
2018-10-16T22:09:56.756Z,72.43
2018-10-16T22:12:26.432Z,72.56
2018-10-16T22:14:56.103Z,72.67
2018-10-16T22:17:25.811Z,73.29
2018-10-16T22:19:55.452Z,73.18
2018-10-16T22:22:25.181Z,73.55
2018-10-16T22:24:55.018Z,73.97
2018-10-16T22:27:24.667Z,73.58
2018-10-16T22:29:54.305Z,74.37
2018-10-16T22:32:23.983Z,74.13
2018-10-16T22:34:53.695Z,74.29
2018-10-16T22:37:23.350Z,74.87
2018-10-16T22:39:52.985Z,74.80
2018-10-16T22:42:22.663Z,74.82
2018-10-16T22:44:52.310Z,74.48
2018-10-16T22:47:22.005Z,74.32
2018-10-16T22:49:51.671Z,74.69
2018-10-16T22:52:21.365Z,74.29
2018-10-16T22:54:50.993Z,74.55
2018-10-16T22:57:20.636Z,74.40
2018-10-16T22:59:50.280Z,74.13
2018-10-16T23:02:19.950Z,74.79
2018-10-16T23:04:49.607Z,74.69
2018-10-16T23:07:19.280Z,74.92
2018-10-16T23:09:48.912Z,74.95
2018-10-16T23:12:18.583Z,74.90
2018-10-16T23:14:48.225Z,75.46
2018-10-16T23:17:17.873Z,75.95
2018-10-16T23:19:47.621Z,76.07
2018-10-16T23:22:17.276Z,76.29
2018-10-16T23:24:46.957Z,75.77
2018-10-16T23:27:16.648Z,75.19
2018-10-16T23:29:46.386Z,75.17
2018-10-16T23:32:16.036Z,75.72
2018-10-16T23:34:45.692Z,75.86
2018-10-16T23:37:15.421Z,75.79
2018-10-16T23:39:44.995Z,75.64
2018-10-16T23:42:14.708Z,76.20
2018-10-16T23:44:44.375Z,76.05
2018-10-16T23:47:14.072Z,75.97
2018-10-16T23:49:43.688Z,76.46
2018-10-16T23:52:13.313Z,76.10
2018-10-16T23:54:43.046Z,76.05
2018-10-16T23:57:12.752Z,76.10
2018-10-16T23:59:42.419Z,75.54
